Time;durP1;ratioP1;P1;durP2;ratioP2;P2;SDS_P1;SDS_P2;PMS_P1;PMS_P2;Temp;Humidity;BMP_temperature;BMP_pressure;BME280_temperature;BME280_humidity;BME280_pressure;Samples;Min_cycle;Max_cycle;Signal;HPM_P1;HPM_P2
2021/11/27 00:00:15;;;;;;;17.83;10.15;;;3.90;99.90;;;;;;5021902;28;20018;-74
2021/11/27 00:02:42;;;;;;;18.17;9.80;;;3.90;99.90;;;;;;5023240;28;20040;-73
2021/11/27 00:05:08;;;;;;;16.50;9.55;;;3.90;99.90;;;;;;5026289;28;20025;-73
2021/11/27 00:07:35;;;;;;;16.75;10.10;;;3.90;99.90;;;;;;5021199;28;20514;-74
2021/11/27 00:10:00;;;;;;;16.40;9.90;;;3.90;99.90;;;;;;5017589;28;20080;-73
2021/11/27 00:12:26;;;;;;;19.95;9.93;;;3.90;99.90;;;;;;5024637;28;20513;-74
2021/11/27 00:14:52;;;;;;;18.70;11.02;;;3.90;99.90;;;;;;5018285;28;20113;-74
2021/11/27 00:17:18;;;;;;;15.55;9.13;;;3.90;99.90;;;;;;5020668;28;20057;-74
2021/11/27 00:19:44;;;;;;;19.55;11.00;;;3.90;99.90;;;;;;5019617;28;20028;-73
2021/11/27 00:22:09;;;;;;;18.35;10.07;;;3.90;99.90;;;;;;5023146;28;20482;-73
2021/11/27 00:24:35;;;;;;;15.63;9.32;;;3.90;99.90;;;;;;5018485;28;20091;-73
2021/11/27 00:27:01;;;;;;;16.17;9.73;;;4.00;99.90;;;;;;5023530;28;20026;-73
2021/11/27 00:29:27;;;;;;;18.10;9.68;;;4.00;99.90;;;;;;5024137;28;20022;-74
2021/11/27 00:31:53;;;;;;;18.20;10.07;;;4.00;99.90;;;;;;5022684;28;20681;-74
2021/11/27 00:34:18;;;;;;;19.63;9.98;;;3.90;99.90;;;;;;5014719;28;20520;-73
2021/11/27 00:36:44;;;;;;;16.27;9.00;;;3.90;99.90;;;;;;5019850;28;20040;-74
2021/11/27 00:39:11;;;;;;;16.48;9.82;;;3.90;99.90;;;;;;5020587;28;20033;-73
2021/11/27 00:41:37;;;;;;;17.70;10.00;;;3.90;99.90;;;;;;5022260;28;20037;-74
2021/11/27 00:44:04;;;;;;;19.67;10.60;;;3.90;99.90;;;;;;5025258;28;20036;-73
2021/11/27 00:46:30;;;;;;;15.82;9.65;;;3.90;99.90;;;;;;5019649;28;20018;-74
2021/11/27 00:48:56;;;;;;;16.33;9.30;;;3.90;99.90;;;;;;5005272;28;20040;-74
2021/11/27 00:51:24;;;;;;;20.33;11.18;;;4.00;99.90;;;;;;5023453;28;20034;-74
2021/11/27 00:53:51;;;;;;;16.40;9.57;;;3.90;99.90;;;;;;5004020;28;20387;-75
2021/11/27 00:56:18;;;;;;;18.42;10.15;;;3.90;99.90;;;;;;5022864;28;20088;-73
2021/11/27 00:58:45;;;;;;;16.10;10.32;;;3.90;99.90;;;;;;5020869;28;20026;-74
2021/11/27 01:01:14;;;;;;;18.33;10.27;;;3.90;99.90;;;;;;5024076;28;20021;-73
2021/11/27 01:03:43;;;;;;;20.33;10.43;;;3.90;99.90;;;;;;5023236;28;20045;-71
2021/11/27 01:06:10;;;;;;;17.23;9.48;;;3.90;99.90;;;;;;5021554;28;20045;-74
2021/11/27 01:08:37;;;;;;;17.02;10.32;;;4.00;99.90;;;;;;5022553;28;20130;-74
2021/11/27 01:11:05;;;;;;;18.70;11.10;;;4.00;99.90;;;;;;5019222;28;20061;-74
2021/11/27 01:13:32;;;;;;;20.48;10.50;;;4.00;99.90;;;;;;5019360;28;20037;-72
2021/11/27 01:16:00;;;;;;;16.40;10.13;;;4.00;99.90;;;;;;5021565;28;20030;-74
2021/11/27 01:18:26;;;;;;;17.70;10.50;;;4.00;99.90;;;;;;5017594;28;20328;-73
2021/11/27 01:20:57;;;;;;;18.70;10.38;;;4.00;99.90;;;;;;5017806;28;20094;-74
2021/11/27 01:23:23;;;;;;;18.88;9.50;;;4.00;99.90;;;;;;5014574;28;20029;-74
2021/11/27 01:25:50;;;;;;;17.98;10.13;;;3.90;99.90;;;;;;5017796;28;20049;-74
2021/11/27 01:28:17;;;;;;;18.00;10.57;;;4.00;99.90;;;;;;5019048;28;20029;-73
2021/11/27 01:30:45;;;;;;;18.85;10.15;;;4.00;99.90;;;;;;5019074;28;20092;-73
2021/11/27 01:33:11;;;;;;;16.55;10.20;;;4.00;99.90;;;;;;5017556;28;20026;-74
2021/11/27 01:35:37;;;;;;;15.90;9.32;;;4.00;99.90;;;;;;5022523;28;20046;-72
2021/11/27 01:38:03;;;;;;;19.77;9.27;;;4.00;99.90;;;;;;5020360;28;20053;-73
2021/11/27 01:40:29;;;;;;;17.30;9.13;;;4.00;99.90;;;;;;5019211;28;20057;-74
2021/11/27 01:42:56;;;;;;;16.52;9.30;;;4.00;99.90;;;;;;5018014;28;20455;-74
2021/11/27 01:45:24;;;;;;;16.13;9.38;;;4.00;99.90;;;;;;5016019;28;21977;-74
2021/11/27 01:48:16;;;;;;;17.55;9.43;;;4.10;99.90;;;;;;5017254;28;20547;-73
2021/11/27 01:50:51;;;;;;;16.58;10.18;;;4.00;99.90;;;;;;4994844;28;20035;-74
2021/11/27 01:53:18;;;;;;;15.55;9.43;;;4.00;99.90;;;;;;5014219;28;20030;-74
2021/11/27 01:55:44;;;;;;;15.63;10.00;;;4.00;99.90;;;;;;5016505;28;20045;-74
2021/11/27 01:58:11;;;;;;;16.30;9.30;;;4.00;99.90;;;;;;5016140;28;20030;-73
2021/11/27 02:00:41;;;;;;;17.38;9.95;;;4.00;99.90;;;;;;5021581;28;20037;-73
2021/11/27 02:03:10;;;;;;;16.27;9.43;;;4.10;99.90;;;;;;5006173;28;20499;-73
2021/11/27 02:05:35;;;;;;;17.65;10.38;;;4.10;99.90;;;;;;5020474;28;20056;-74
2021/11/27 02:08:01;;;;;;;16.75;9.57;;;4.00;99.90;;;;;;5019717;28;20033;-74
2021/11/27 02:10:28;;;;;;;22.77;10.55;;;4.10;99.90;;;;;;5003389;28;20030;-74
2021/11/27 02:12:54;;;;;;;19.65;9.80;;;4.10;99.90;;;;;;5016881;28;20068;-73
2021/11/27 02:15:20;;;;;;;21.20;10.00;;;4.10;99.90;;;;;;5020851;28;20029;-74
2021/11/27 02:17:48;;;;;;;16.77;9.43;;;4.00;99.90;;;;;;5025720;28;20079;-74
2021/11/27 02:20:14;;;;;;;16.45;8.70;;;4.10;99.90;;;;;;5017074;28;20022;-73
2021/11/27 02:22:40;;;;;;;18.52;9.30;;;4.10;99.90;;;;;;5018299;28;20032;-73
2021/11/27 02:25:17;;;;;;;16.50;9.65;;;4.10;99.90;;;;;;5016625;28;20038;-74
2021/11/27 02:27:49;;;;;;;16.70;9.57;;;4.10;99.90;;;;;;5016067;28;20031;-74
2021/11/27 02:30:19;;;;;;;17.23;9.25;;;4.10;99.90;;;;;;5003141;28;20026;-74
2021/11/27 02:32:45;;;;;;;17.08;9.90;;;4.20;99.90;;;;;;5018073;28;20034;-75
2021/11/27 02:35:12;;;;;;;14.60;9.35;;;4.20;99.90;;;;;;5023428;28;20080;-73
2021/11/27 02:37:37;;;;;;;20.23;9.20;;;4.10;99.90;;;;;;5024100;28;20022;-73
2021/11/27 02:40:07;;;;;;;20.10;9.35;;;4.10;99.90;;;;;;5025097;28;20040;-73
2021/11/27 02:42:32;;;;;;;16.55;8.57;;;4.10;99.90;;;;;;5023885;28;20048;-73
2021/11/27 02:44:58;;;;;;;16.75;8.88;;;4.10;99.90;;;;;;5017168;28;20030;-73
2021/11/27 02:47:24;;;;;;;16.73;9.75;;;4.20;99.90;;;;;;5019656;28;20024;-72
2021/11/27 02:49:50;;;;;;;19.10;10.30;;;4.10;99.90;;;;;;5018757;28;20498;-74
2021/11/27 02:52:17;;;;;;;16.73;9.27;;;4.10;99.90;;;;;;5021731;28;20680;-72
2021/11/27 02:54:43;;;;;;;18.48;10.82;;;4.10;99.90;;;;;;5000211;28;20061;-73
2021/11/27 02:57:08;;;;;;;14.77;8.90;;;4.10;99.90;;;;;;5023196;28;20388;-72
2021/11/27 02:59:34;;;;;;;18.50;10.10;;;4.10;99.90;;;;;;5018384;28;20034;-73
2021/11/27 03:02:02;;;;;;;17.23;9.05;;;4.10;99.90;;;;;;5020251;28;20029;-74
2021/11/27 03:04:32;;;;;;;19.23;9.52;;;4.10;99.90;;;;;;5019161;28;20061;-73
2021/11/27 03:06:58;;;;;;;17.88;9.68;;;4.10;99.90;;;;;;5021150;28;20026;-74
2021/11/27 03:09:24;;;;;;;19.45;9.75;;;4.10;99.90;;;;;;5018752;28;20025;-75
2021/11/27 03:11:53;;;;;;;16.80;9.55;;;4.10;99.90;;;;;;5021173;28;20208;-73
2021/11/27 03:14:21;;;;;;;20.25;10.23;;;4.10;99.90;;;;;;5020092;28;20051;-73
2021/11/27 03:16:48;;;;;;;21.83;10.73;;;4.00;99.90;;;;;;5014363;28;20060;-73
2021/11/27 03:19:14;;;;;;;21.73;10.57;;;4.00;99.90;;;;;;5019312;28;20018;-73
2021/11/27 03:21:40;;;;;;;20.10;11.13;;;4.10;99.90;;;;;;5020653;28;20032;-74
2021/11/27 03:24:06;;;;;;;20.33;10.68;;;4.00;99.90;;;;;;5018097;28;20030;-73
2021/11/27 03:26:32;;;;;;;25.70;10.32;;;4.00;99.90;;;;;;5021765;28;20034;-73
2021/11/27 03:28:58;;;;;;;19.63;10.98;;;4.00;99.90;;;;;;5019862;28;20048;-74
2021/11/27 03:31:24;;;;;;;19.08;10.45;;;4.00;99.90;;;;;;5017256;28;20492;-74
2021/11/27 03:33:50;;;;;;;20.08;10.95;;;4.10;99.90;;;;;;5021086;28;20422;-72
2021/11/27 03:36:17;;;;;;;21.15;10.73;;;4.10;99.90;;;;;;5017652;28;20084;-73
2021/11/27 03:38:43;;;;;;;20.30;10.75;;;4.10;99.90;;;;;;5024765;28;20095;-74
2021/11/27 03:41:10;;;;;;;19.70;11.27;;;4.10;99.90;;;;;;5025133;28;20026;-74
2021/11/27 03:43:38;;;;;;;22.83;11.10;;;4.10;99.90;;;;;;5025443;28;20111;-74
2021/11/27 03:46:04;;;;;;;19.63;10.57;;;4.10;99.90;;;;;;5026548;28;20088;-74
2021/11/27 03:48:33;;;;;;;21.75;11.30;;;4.10;99.90;;;;;;5028737;28;20079;-73
2021/11/27 03:51:02;;;;;;;21.83;11.80;;;4.10;99.90;;;;;;5023198;28;20097;-74
2021/11/27 03:53:31;;;;;;;22.30;11.35;;;4.10;99.90;;;;;;5025299;28;20096;-74
2021/11/27 03:55:59;;;;;;;24.13;11.55;;;4.10;99.90;;;;;;5025639;28;20025;-74
2021/11/27 03:58:25;;;;;;;22.10;11.52;;;4.10;99.90;;;;;;5020964;28;20057;-74
2021/11/27 04:00:53;;;;;;;25.17;13.15;;;4.10;99.90;;;;;;5025924;28;20057;-74
2021/11/27 04:03:19;;;;;;;20.63;10.63;;;4.10;99.90;;;;;;5023854;28;20061;-73
2021/11/27 04:05:48;;;;;;;20.33;11.70;;;4.10;99.90;;;;;;5021213;28;20025;-73
2021/11/27 04:08:15;;;;;;;23.10;11.82;;;4.10;99.90;;;;;;5018747;28;20105;-73
2021/11/27 04:10:40;;;;;;;24.02;11.38;;;4.10;99.90;;;;;;5027312;28;20048;-72
2021/11/27 04:13:07;;;;;;;24.13;12.80;;;4.10;99.90;;;;;;5022829;28;20038;-74
2021/11/27 04:15:33;;;;;;;23.80;12.60;;;4.10;99.90;;;;;;5032009;28;20030;-74
2021/11/27 04:17:58;;;;;;;24.80;12.35;;;4.10;99.90;;;;;;5024461;28;20048;-74
2021/11/27 04:20:24;;;;;;;24.40;12.90;;;4.10;99.90;;;;;;5023826;28;20029;-74
2021/11/27 04:22:50;;;;;;;23.92;12.75;;;4.10;99.90;;;;;;5007197;28;20026;-74
2021/11/27 04:25:16;;;;;;;25.67;13.25;;;4.00;99.90;;;;;;5021498;28;20053;-74
2021/11/27 04:27:42;;;;;;;23.83;12.52;;;4.00;99.90;;;;;;5019289;28;20029;-74
2021/11/27 04:30:14;;;;;;;26.60;13.02;;;4.00;99.90;;;;;;5021032;28;20033;-73
2021/11/27 04:32:41;;;;;;;27.02;13.05;;;4.00;99.90;;;;;;5020249;28;20091;-73
2021/11/27 04:35:07;;;;;;;24.95;12.38;;;3.90;99.90;;;;;;5020385;28;20168;-74
2021/11/27 04:37:33;;;;;;;30.17;13.10;;;3.90;99.90;;;;;;5019529;28;20057;-74
2021/11/27 04:39:59;;;;;;;24.52;13.35;;;3.90;99.90;;;;;;5018618;28;20591;-74
2021/11/27 04:42:25;;;;;;;25.63;12.80;;;3.90;99.90;;;;;;5019051;28;20029;-74
2021/11/27 04:44:51;;;;;;;24.60;13.13;;;3.80;99.90;;;;;;5015953;28;20045;-74
2021/11/27 04:47:16;;;;;;;24.13;13.13;;;3.80;99.90;;;;;;5019472;28;20383;-74
2021/11/27 04:49:43;;;;;;;26.77;14.23;;;3.80;99.90;;;;;;5020946;28;20033;-73
2021/11/27 04:52:09;;;;;;;26.85;13.55;;;3.80;99.90;;;;;;5022730;28;20033;-73
2021/11/27 04:54:35;;;;;;;23.60;13.07;;;3.80;99.90;;;;;;5020592;28;20033;-73
2021/11/27 04:57:02;;;;;;;24.52;12.98;;;3.80;99.90;;;;;;5028985;28;20057;-73
2021/11/27 04:59:28;;;;;;;25.83;14.02;;;3.70;99.90;;;;;;5005052;28;20021;-73
2021/11/27 05:01:54;;;;;;;29.85;14.57;;;3.70;99.90;;;;;;5021554;28;20030;-73
2021/11/27 05:04:21;;;;;;;26.88;13.48;;;3.70;99.90;;;;;;5015497;28;20047;-74
2021/11/27 05:06:46;;;;;;;23.83;13.27;;;3.80;99.90;;;;;;5022016;28;20026;-73
2021/11/27 05:09:13;;;;;;;26.02;14.05;;;3.80;99.90;;;;;;5025804;28;20032;-72
2021/11/27 05:11:39;;;;;;;24.75;13.07;;;3.80;99.90;;;;;;5026760;28;20124;-73
2021/11/27 05:14:05;;;;;;;27.02;13.82;;;3.80;99.90;;;;;;5022943;28;20034;-74
2021/11/27 05:16:31;;;;;;;27.52;13.60;;;3.80;99.90;;;;;;5023727;28;20030;-74
2021/11/27 05:18:57;;;;;;;26.23;13.13;;;3.80;99.90;;;;;;5021752;28;20053;-74
2021/11/27 05:21:23;;;;;;;25.30;13.00;;;3.80;99.90;;;;;;5018922;28;20050;-73
2021/11/27 05:23:49;;;;;;;25.42;12.63;;;3.80;99.90;;;;;;5025068;28;20036;-74
2021/11/27 05:26:15;;;;;;;29.05;13.93;;;3.80;99.90;;;;;;5022316;28;20028;-74
2021/11/27 05:28:41;;;;;;;23.88;13.00;;;3.80;99.90;;;;;;5019336;28;20026;-72
2021/11/27 05:31:09;;;;;;;24.33;12.63;;;3.80;99.90;;;;;;5004398;28;20434;-72
2021/11/27 05:36:18;;;;;;;22.95;12.30;;;3.80;99.90;;;;;;5015359;28;20117;-73
2021/11/27 05:38:46;;;;;;;25.65;13.05;;;3.80;99.90;;;;;;5019933;28;20029;-74
2021/11/27 05:41:14;;;;;;;25.88;13.57;;;3.90;99.90;;;;;;5020084;28;20049;-73
2021/11/27 05:43:40;;;;;;;23.98;12.75;;;3.80;99.90;;;;;;5024785;28;20084;-74
2021/11/27 05:46:06;;;;;;;23.83;12.88;;;3.90;99.90;;;;;;5018258;28;20025;-73
2021/11/27 05:48:32;;;;;;;24.33;13.40;;;3.90;99.90;;;;;;5019097;28;20025;-72
2021/11/27 05:50:58;;;;;;;27.63;14.13;;;3.90;99.90;;;;;;5023573;28;20040;-73
2021/11/27 05:53:24;;;;;;;27.08;14.07;;;3.90;99.90;;;;;;5019976;28;20029;-74
2021/11/27 05:55:51;;;;;;;26.00;12.82;;;3.90;99.90;;;;;;5022001;28;20044;-74
2021/11/27 05:58:18;;;;;;;26.95;13.50;;;3.80;99.90;;;;;;5020654;28;20061;-74
2021/11/27 06:00:45;;;;;;;28.20;14.07;;;3.80;99.90;;;;;;5024415;28;20521;-74
2021/11/27 06:03:11;;;;;;;26.73;13.93;;;3.80;99.90;;;;;;5027497;28;20032;-72
2021/11/27 06:05:37;;;;;;;25.75;13.57;;;3.80;99.90;;;;;;5021459;28;20029;-73
2021/11/27 06:08:04;;;;;;;24.60;13.35;;;3.80;99.90;;;;;;5023863;28;20021;-73
2021/11/27 06:10:31;;;;;;;23.85;13.25;;;3.80;99.90;;;;;;5023617;28;20450;-73
2021/11/27 06:12:57;;;;;;;23.08;12.40;;;3.80;99.90;;;;;;5022777;28;20030;-73
2021/11/27 06:15:23;;;;;;;24.77;12.60;;;3.80;99.90;;;;;;5027994;28;20033;-73
2021/11/27 06:17:50;;;;;;;30.85;14.45;;;3.90;99.90;;;;;;5019311;28;20049;-73
2021/11/27 06:20:16;;;;;;;26.52;13.50;;;3.90;99.90;;;;;;5026184;28;20032;-73
2021/11/27 06:22:42;;;;;;;24.95;13.85;;;3.90;99.90;;;;;;5018776;28;20105;-73
2021/11/27 06:25:11;;;;;;;25.27;13.90;;;3.90;99.90;;;;;;5027816;28;20025;-73
2021/11/27 06:27:38;;;;;;;24.92;13.30;;;3.90;99.90;;;;;;5020256;28;20029;-72
2021/11/27 06:30:05;;;;;;;25.40;12.82;;;3.90;99.90;;;;;;5018455;28;20026;-73
2021/11/27 06:32:32;;;;;;;29.30;14.30;;;3.90;99.90;;;;;;5027243;28;20097;-73
2021/11/27 06:34:58;;;;;;;25.90;13.05;;;3.90;99.90;;;;;;5021711;28;20036;-73
2021/11/27 06:37:25;;;;;;;27.83;13.52;;;3.90;99.90;;;;;;5017970;28;20040;-73
2021/11/27 06:39:51;;;;;;;27.55;13.68;;;3.90;99.90;;;;;;5014938;28;20034;-73
2021/11/27 06:42:18;;;;;;;25.65;12.95;;;3.90;99.90;;;;;;5018215;28;20025;-73
2021/11/27 06:44:47;;;;;;;25.48;13.07;;;3.90;99.90;;;;;;5021592;28;20034;-71
2021/11/27 06:47:18;;;;;;;25.30;13.10;;;3.90;99.90;;;;;;5024007;28;20018;-72
2021/11/27 06:49:46;;;;;;;27.42;14.43;;;3.90;99.90;;;;;;5018688;28;20033;-72
2021/11/27 06:52:13;;;;;;;24.42;12.90;;;3.90;99.90;;;;;;5019330;28;20029;-73
2021/11/27 06:54:40;;;;;;;26.52;13.48;;;3.90;99.90;;;;;;5017684;28;20041;-73
2021/11/27 06:57:09;;;;;;;27.75;14.05;;;3.90;99.90;;;;;;5020690;28;20080;-73
2021/11/27 06:59:36;;;;;;;25.83;14.43;;;3.90;99.90;;;;;;5023144;28;20041;-74
2021/11/27 07:02:02;;;;;;;27.20;13.93;;;3.90;99.90;;;;;;5025839;28;20029;-74
2021/11/27 07:04:28;;;;;;;24.73;12.95;;;3.90;99.90;;;;;;5021640;28;20029;-72
2021/11/27 07:06:54;;;;;;;24.17;12.77;;;4.00;99.90;;;;;;5015395;28;20034;-72
2021/11/27 07:09:20;;;;;;;25.98;13.13;;;4.00;99.90;;;;;;5017670;28;20065;-72
2021/11/27 07:11:46;;;;;;;25.35;12.80;;;4.00;99.90;;;;;;5019926;28;21067;-73
2021/11/27 07:14:12;;;;;;;23.50;12.43;;;4.00;99.90;;;;;;5022152;28;20041;-73
2021/11/27 07:16:38;;;;;;;22.77;11.88;;;4.00;99.90;;;;;;5025249;28;20065;-73
2021/11/27 07:19:04;;;;;;;24.08;12.50;;;4.00;99.90;;;;;;5021131;28;20068;-73
2021/11/27 07:21:30;;;;;;;27.17;13.48;;;4.00;99.90;;;;;;5022969;28;20033;-73
2021/11/27 07:23:56;;;;;;;26.23;13.32;;;4.00;99.90;;;;;;5028162;28;20041;-73
2021/11/27 07:26:22;;;;;;;24.63;12.77;;;4.00;99.90;;;;;;5024081;28;20079;-73
2021/11/27 07:28:50;;;;;;;25.92;14.40;;;4.00;99.90;;;;;;5026244;28;20613;-73
2021/11/27 07:31:16;;;;;;;26.35;14.15;;;4.00;99.90;;;;;;5003445;28;20073;-74
2021/11/27 07:33:42;;;;;;;24.73;13.25;;;4.00;99.90;;;;;;5022880;28;20037;-74
2021/11/27 07:36:08;;;;;;;23.85;13.48;;;4.00;99.90;;;;;;5018121;28;20021;-73
2021/11/27 07:38:34;;;;;;;28.92;14.70;;;4.00;99.90;;;;;;5023347;28;20109;-72
2021/11/27 07:41:01;;;;;;;26.50;12.70;;;4.00;99.90;;;;;;5019007;28;20148;-73
2021/11/27 07:43:28;;;;;;;26.20;13.57;;;4.00;99.90;;;;;;5023578;28;20030;-72
2021/11/27 07:45:53;;;;;;;24.63;13.70;;;4.00;99.90;;;;;;5025804;28;20468;-73
2021/11/27 07:48:20;;;;;;;26.10;13.70;;;4.00;99.90;;;;;;5021286;28;20032;-73
2021/11/27 07:50:45;;;;;;;26.50;15.02;;;4.00;99.90;;;;;;5021810;28;20561;-72
2021/11/27 07:53:11;;;;;;;24.83;13.88;;;4.00;99.90;;;;;;5021715;28;20116;-73
2021/11/27 07:55:37;;;;;;;26.25;13.57;;;3.90;99.90;;;;;;5025407;28;20083;-73
2021/11/27 07:58:03;;;;;;;28.88;13.63;;;4.00;99.90;;;;;;5018586;28;20049;-73
2021/11/27 08:00:29;;;;;;;31.70;14.80;;;4.00;99.90;;;;;;5021510;28;20068;-73
2021/11/27 08:02:55;;;;;;;26.05;13.30;;;4.00;99.90;;;;;;5022622;28;20026;-74
2021/11/27 08:05:21;;;;;;;31.63;15.25;;;4.00;99.90;;;;;;5024258;28;20033;-73
2021/11/27 08:07:47;;;;;;;28.83;13.45;;;4.00;99.90;;;;;;5025468;28;20422;-74
2021/11/27 08:10:14;;;;;;;23.27;13.02;;;4.00;99.90;;;;;;5017348;28;20026;-73
2021/11/27 08:12:40;;;;;;;26.38;13.80;;;4.00;99.90;;;;;;5019283;28;20041;-72
2021/11/27 08:15:08;;;;;;;27.73;14.27;;;4.00;99.90;;;;;;5021294;28;20558;-73
2021/11/27 08:17:39;;;;;;;28.55;14.05;;;4.00;99.90;;;;;;5022538;28;20399;-72
2021/11/27 08:20:06;;;;;;;26.55;13.70;;;4.10;99.90;;;;;;5019007;28;20033;-74
2021/11/27 08:22:33;;;;;;;25.50;13.45;;;4.10;99.90;;;;;;5023753;28;20040;-72
2021/11/27 08:24:59;;;;;;;28.77;14.48;;;4.10;99.90;;;;;;5022757;28;20146;-72
2021/11/27 08:27:27;;;;;;;25.83;13.63;;;4.10;99.90;;;;;;5004039;28;20066;-73
2021/11/27 08:29:57;;;;;;;26.13;13.63;;;4.10;99.90;;;;;;5020126;28;20814;-73
2021/11/27 08:32:23;;;;;;;26.40;14.00;;;4.20;99.90;;;;;;5021474;28;20112;-73
2021/11/27 08:34:49;;;;;;;24.30;13.50;;;4.20;99.90;;;;;;5020295;28;20105;-74
2021/11/27 08:37:15;;;;;;;27.60;13.95;;;4.20;99.90;;;;;;5020383;28;20029;-74
2021/11/27 08:39:40;;;;;;;27.80;14.48;;;4.20;99.90;;;;;;5020315;28;20091;-73
2021/11/27 08:42:07;;;;;;;27.27;13.93;;;4.30;99.90;;;;;;5018211;28;20037;-73
2021/11/27 08:44:36;;;;;;;27.48;14.10;;;4.30;99.90;;;;;;5025115;28;20072;-73
2021/11/27 08:47:01;;;;;;;24.77;14.10;;;4.40;99.90;;;;;;5023434;28;20498;-72
2021/11/27 08:49:27;;;;;;;28.02;14.60;;;4.40;99.90;;;;;;5019275;28;20030;-72
2021/11/27 08:51:53;;;;;;;27.13;14.35;;;4.40;99.90;;;;;;5024872;28;20503;-73
2021/11/27 08:54:19;;;;;;;28.15;15.10;;;4.50;99.90;;;;;;5018793;28;20021;-73
2021/11/27 08:56:45;;;;;;;25.08;13.07;;;4.50;99.90;;;;;;5020903;28;20476;-73
2021/11/27 08:59:11;;;;;;;23.08;12.63;;;4.50;99.90;;;;;;5017562;28;20034;-73
2021/11/27 09:01:37;;;;;;;24.17;13.45;;;4.60;99.90;;;;;;5019714;28;20034;-73
2021/11/27 09:04:03;;;;;;;26.83;13.30;;;4.60;99.90;;;;;;5017645;28;20073;-73
2021/11/27 09:06:29;;;;;;;22.48;12.20;;;4.60;99.90;;;;;;5022044;28;20022;-73
2021/11/27 09:08:55;;;;;;;25.17;13.48;;;4.50;99.90;;;;;;5018750;28;20483;-73
2021/11/27 09:11:23;;;;;;;25.17;13.48;;;4.50;99.90;;;;;;5014512;28;20038;-73
2021/11/27 09:13:49;;;;;;;27.67;14.10;;;4.50;99.90;;;;;;5001078;28;20035;-72
2021/11/27 09:16:17;;;;;;;22.08;13.55;;;4.50;99.90;;;;;;4988717;28;20029;-72
2021/11/27 09:18:43;;;;;;;26.00;14.32;;;4.50;99.90;;;;;;5021032;28;20045;-72
2021/11/27 09:21:09;;;;;;;25.85;13.90;;;4.50;99.90;;;;;;5017705;28;20029;-73
2021/11/27 09:23:35;;;;;;;28.38;14.45;;;4.50;99.90;;;;;;5020397;28;20026;-71
2021/11/27 09:26:01;;;;;;;25.63;13.82;;;4.50;99.90;;;;;;5019577;28;20018;-72
2021/11/27 09:28:27;;;;;;;27.45;13.82;;;4.50;99.90;;;;;;5020360;28;20036;-72
2021/11/27 09:30:53;;;;;;;25.85;13.20;;;4.60;99.90;;;;;;5017585;28;20502;-73
2021/11/27 09:33:19;;;;;;;25.65;12.88;;;4.60;99.90;;;;;;5011554;28;20018;-74
2021/11/27 09:36:01;;;;;;;24.75;13.57;;;4.60;99.90;;;;;;5019339;28;20512;-72
2021/11/27 09:38:28;;;;;;;23.10;12.45;;;4.50;99.90;;;;;;5015326;28;20291;-73
2021/11/27 09:41:08;;;;;;;26.05;13.50;;;4.60;99.90;;;;;;5003431;28;20053;-70
2021/11/27 09:43:35;;;;;;;24.33;13.27;;;4.60;99.90;;;;;;5004115;28;20602;-72
2021/11/27 09:46:01;;;;;;;24.83;13.63;;;4.50;99.90;;;;;;5016427;28;20022;-72
2021/11/27 09:48:29;;;;;;;25.45;14.15;;;4.50;99.90;;;;;;5016564;28;20744;-74
2021/11/27 09:50:55;;;;;;;27.35;13.73;;;4.50;99.90;;;;;;5014092;28;20032;-74
2021/11/27 09:53:21;;;;;;;29.95;15.18;;;4.50;99.90;;;;;;5013704;28;20030;-74
2021/11/27 09:55:48;;;;;;;25.27;13.75;;;4.60;99.90;;;;;;5010872;28;20018;-75
2021/11/27 09:58:14;;;;;;;27.75;13.93;;;4.60;99.90;;;;;;5009847;28;20053;-74
2021/11/27 10:00:40;;;;;;;30.27;13.95;;;4.60;99.90;;;;;;5013463;28;20029;-74
2021/11/27 10:03:09;;;;;;;24.45;13.23;;;4.50;99.90;;;;;;5012291;28;20025;-75
2021/11/27 10:05:35;;;;;;;25.73;13.18;;;4.60;99.90;;;;;;5013279;28;20475;-74
2021/11/27 10:08:01;;;;;;;23.63;13.23;;;4.60;99.90;;;;;;5013317;28;20084;-75
2021/11/27 10:10:27;;;;;;;25.83;14.50;;;4.60;99.90;;;;;;5014078;28;20030;-75
2021/11/27 10:12:54;;;;;;;28.67;13.38;;;4.60;99.90;;;;;;5011831;28;20116;-76
2021/11/27 10:15:20;;;;;;;24.90;13.18;;;4.60;99.90;;;;;;5015581;28;20075;-76
2021/11/27 10:17:45;;;;;;;29.65;13.43;;;4.60;99.90;;;;;;4998772;28;20030;-74
2021/11/27 10:20:15;;;;;;;24.98;12.82;;;4.50;99.90;;;;;;5019419;28;20032;-74
2021/11/27 10:22:52;;;;;;;24.95;12.98;;;4.50;99.90;;;;;;5016564;28;20395;-77
2021/11/27 10:25:35;;;;;;;27.05;14.55;;;4.50;99.90;;;;;;5021856;28;20022;-77
2021/11/27 10:28:15;;;;;;;24.70;13.27;;;4.50;99.90;;;;;;5013543;28;20022;-74
2021/11/27 10:30:42;;;;;;;22.67;12.45;;;4.50;99.90;;;;;;5013500;28;20030;-75
2021/11/27 10:33:09;;;;;;;26.73;13.52;;;4.60;99.90;;;;;;5012949;28;20033;-75
2021/11/27 10:35:35;;;;;;;24.13;12.85;;;4.60;99.90;;;;;;5020950;28;20120;-74
2021/11/27 10:38:07;;;;;;;27.88;14.05;;;4.70;99.90;;;;;;5016467;28;20519;-74
2021/11/27 10:40:33;;;;;;;22.73;13.30;;;5.00;99.90;;;;;;5011630;28;20064;-73
2021/11/27 10:43:05;;;;;;;24.45;12.70;;;5.10;99.90;;;;;;5001385;28;20022;-74
2021/11/27 10:45:34;;;;;;;24.52;12.90;;;5.00;99.90;;;;;;5026459;28;20507;-74
2021/11/27 10:48:18;;;;;;;25.30;15.18;;;4.90;99.90;;;;;;5019013;28;20025;-77
2021/11/27 10:50:52;;;;;;;25.48;12.68;;;4.90;99.90;;;;;;5030651;28;20139;-74
2021/11/27 10:53:24;;;;;;;26.75;13.52;;;4.80;99.90;;;;;;5021858;28;20025;-75
2021/11/27 10:55:50;;;;;;;24.45;13.55;;;4.80;99.90;;;;;;5024675;28;20032;-77
2021/11/27 10:58:16;;;;;;;22.98;13.05;;;4.80;99.90;;;;;;5024389;28;20037;-74
2021/11/27 11:00:50;;;;;;;29.17;14.68;;;4.80;99.90;;;;;;5022187;28;20104;-74
2021/11/27 11:03:33;;;;;;;24.73;13.43;;;4.90;99.90;;;;;;5026686;28;20038;-75
2021/11/27 11:06:16;;;;;;;23.92;12.40;;;4.90;99.90;;;;;;5020386;28;20050;-75
2021/11/27 11:08:42;;;;;;;24.08;13.70;;;4.80;99.90;;;;;;5003888;28;20021;-75
2021/11/27 11:11:20;;;;;;;27.55;14.07;;;4.80;99.90;;;;;;5022819;28;20060;-74
2021/11/27 11:13:52;;;;;;;24.38;13.48;;;4.70;99.90;;;;;;5026601;28;20160;-73
2021/11/27 11:16:19;;;;;;;25.63;13.02;;;4.70;99.90;;;;;;5027046;28;20040;-74
2021/11/27 11:18:45;;;;;;;24.02;13.00;;;4.70;99.90;;;;;;5026115;28;20033;-73
2021/11/27 11:21:12;;;;;;;22.27;12.43;;;4.70;99.90;;;;;;5027334;28;20037;-74
2021/11/27 11:23:43;;;;;;;23.90;13.30;;;4.60;99.90;;;;;;5022523;28;20033;-74
2021/11/27 11:26:15;;;;;;;25.00;12.55;;;4.70;99.90;;;;;;5008920;28;20029;-74
2021/11/27 11:28:47;;;;;;;24.77;13.63;;;4.60;99.90;;;;;;5024540;28;20172;-74
2021/11/27 11:31:17;;;;;;;23.45;12.35;;;4.60;99.90;;;;;;5019938;28;20029;-75
2021/11/27 11:33:47;;;;;;;24.00;12.95;;;4.50;99.90;;;;;;5025018;28;20037;-72
2021/11/27 11:36:15;;;;;;;25.23;12.90;;;4.50;99.90;;;;;;5020211;28;20044;-74
2021/11/27 11:38:50;;;;;;;26.10;13.75;;;4.50;99.90;;;;;;5026055;28;20026;-74
2021/11/27 11:41:17;;;;;;;22.90;12.77;;;4.50;99.90;;;;;;5017220;28;20160;-74
2021/11/27 11:43:44;;;;;;;21.77;12.27;;;4.50;99.90;;;;;;5023648;28;20040;-73
2021/11/27 11:46:10;;;;;;;20.77;12.73;;;4.50;99.90;;;;;;5022286;28;20028;-73
2021/11/27 11:48:38;;;;;;;23.65;12.68;;;4.50;99.90;;;;;;5021130;28;20073;-73
2021/11/27 11:51:09;;;;;;;20.65;12.43;;;4.40;99.90;;;;;;5002684;28;20037;-74
2021/11/27 11:53:51;;;;;;;21.23;12.05;;;4.40;99.90;;;;;;5024275;28;20427;-73
2021/11/27 11:56:19;;;;;;;23.17;13.73;;;4.40;99.90;;;;;;5026092;28;20032;-72
2021/11/27 11:58:47;;;;;;;24.48;12.80;;;4.40;99.90;;;;;;5022530;28;20038;-73
2021/11/27 12:01:20;;;;;;;25.23;13.70;;;4.40;99.90;;;;;;5023863;28;20040;-73
2021/11/27 12:03:52;;;;;;;24.67;13.40;;;4.30;99.90;;;;;;5019803;28;20092;-73
2021/11/27 12:06:20;;;;;;;24.95;13.95;;;4.30;99.90;;;;;;5019833;28;20513;-71
2021/11/27 12:08:51;;;;;;;22.95;13.35;;;4.30;99.90;;;;;;5021061;28;20069;-72
2021/11/27 12:11:44;;;;;;;25.20;13.97;;;4.30;99.90;;;;;;5019683;28;20038;-73
2021/11/27 12:14:22;;;;;;;22.08;11.55;;;4.30;99.90;;;;;;5021206;28;20034;-72
2021/11/27 12:17:04;;;;;;;22.67;13.45;;;4.30;99.90;;;;;;5021534;28;20388;-71
2021/11/27 12:19:47;;;;;;;21.42;11.38;;;4.30;99.90;;;;;;5021587;28;20522;-72
2021/11/27 12:22:31;;;;;;;22.63;12.18;;;4.30;99.90;;;;;;5024777;28;20535;-73
2021/11/27 12:25:03;;;;;;;20.45;12.27;;;4.20;99.90;;;;;;5021635;28;20025;-73
2021/11/27 12:27:28;;;;;;;19.77;11.00;;;4.20;99.90;;;;;;5019326;28;20026;-73
2021/11/27 12:30:08;;;;;;;19.83;11.73;;;4.10;99.90;;;;;;5017508;28;20022;-72
2021/11/27 12:32:42;;;;;;;18.35;10.40;;;4.10;99.90;;;;;;5023523;28;20034;-72
2021/11/27 12:35:29;;;;;;;17.48;10.48;;;4.10;99.90;;;;;;5020558;28;20034;-72
2021/11/27 12:38:15;;;;;;;16.75;9.95;;;4.00;99.90;;;;;;5008566;28;20116;-72
2021/11/27 12:40:48;;;;;;;17.67;11.13;;;4.00;99.90;;;;;;5023643;28;20105;-73
2021/11/27 12:43:19;;;;;;;16.20;9.75;;;4.00;99.90;;;;;;5028393;28;20036;-73